createdAt,value
2023-02-25T00:02:12.385Z,1.85
2023-02-25T00:07:14.542Z,1.80
2023-02-25T00:12:16.578Z,1.83
2023-02-25T00:17:18.620Z,2.03
2023-02-25T00:22:20.733Z,1.90
2023-02-25T00:27:23.898Z,1.85
2023-02-25T00:32:26.474Z,1.52
2023-02-25T00:37:28.701Z,2.38
2023-02-25T00:42:30.698Z,1.88
2023-02-25T00:47:33.974Z,1.92
2023-02-25T00:52:37.722Z,2.25
2023-02-25T00:57:39.871Z,2.35
2023-02-25T01:02:45.460Z,2.15
2023-02-25T01:07:47.557Z,2.00
2023-02-25T01:12:49.673Z,2.10
2023-02-25T01:17:51.976Z,2.63
2023-02-25T01:22:54.109Z,2.33
2023-02-25T01:27:58.050Z,1.75
2023-02-25T01:33:01.057Z,2.30
2023-02-25T01:38:03.373Z,1.90
2023-02-25T01:43:07.792Z,2.10
2023-02-25T01:48:15.494Z,2.20
2023-02-25T01:53:23.640Z,2.00
2023-02-25T01:58:27.443Z,2.13
2023-02-25T02:03:33.806Z,1.90
2023-02-25T02:08:40.679Z,2.40
2023-02-25T02:13:47.568Z,2.30
2023-02-25T02:18:57.317Z,2.05
2023-02-25T02:24:21.201Z,1.98
2023-02-25T02:30:07.844Z,2.30
2023-02-25T02:35:39.159Z,1.98
2023-02-25T02:41:05.396Z,2.53
2023-02-25T02:46:23.374Z,2.72
2023-02-25T02:51:41.175Z,2.53
2023-02-25T02:56:46.865Z,2.15
2023-02-25T03:02:04.437Z,1.73
2023-02-25T03:07:10.804Z,2.15
2023-02-25T03:12:12.930Z,2.22
2023-02-25T03:17:24.985Z,2.80
2023-02-25T03:22:35.771Z,2.17
2023-02-25T03:27:42.286Z,2.10
2023-02-25T03:32:55.872Z,2.45
2023-02-25T03:38:09.526Z,2.70
2023-02-25T03:43:17.938Z,2.53
2023-02-25T03:48:20.302Z,2.25
2023-02-25T03:53:22.672Z,3.25
2023-02-25T03:58:39.701Z,2.42
2023-02-25T04:08:44.007Z,2.67
2023-02-25T04:13:46.253Z,2.10
2023-02-25T04:18:48.368Z,1.52
2023-02-25T04:23:50.786Z,1.67
2023-02-25T04:28:53.104Z,1.65
2023-02-25T04:33:57.993Z,1.80
2023-02-25T04:39:03.403Z,1.60
2023-02-25T04:44:06.657Z,1.42
2023-02-25T04:49:09.766Z,1.55
2023-02-25T04:54:12.374Z,1.52
2023-02-25T04:59:15.241Z,1.58
2023-02-25T05:04:17.262Z,1.85
2023-02-25T05:09:21.104Z,2.13
2023-02-25T05:14:23.169Z,1.80
2023-02-25T05:19:25.751Z,1.73
2023-02-25T05:24:28.089Z,2.10
2023-02-25T05:29:31.225Z,1.70
2023-02-25T05:34:34.134Z,2.45
2023-02-25T05:39:36.547Z,2.28
2023-02-25T05:44:38.806Z,2.50
2023-02-25T05:49:42.689Z,2.63
2023-02-25T05:54:44.930Z,2.38
2023-02-25T05:59:47.521Z,2.05
2023-02-25T06:04:53.554Z,2.40
2023-02-25T06:09:59.927Z,2.13
2023-02-25T06:15:02.056Z,2.08
2023-02-25T06:20:05.614Z,2.58
2023-02-25T06:25:08.153Z,2.35
2023-02-25T06:30:10.833Z,2.13
2023-02-25T06:35:13.586Z,1.90
2023-02-25T06:40:15.889Z,2.30
2023-02-25T06:45:18.174Z,2.58
2023-02-25T06:50:20.465Z,2.25
2023-02-25T06:55:22.532Z,2.92
2023-02-25T07:00:24.653Z,2.45
2023-02-25T07:05:26.708Z,2.17
2023-02-25T07:10:28.715Z,2.38
2023-02-25T07:15:30.807Z,2.75
2023-02-25T07:20:32.889Z,2.60
2023-02-25T07:25:35.112Z,2.28
2023-02-25T07:30:37.162Z,2.28
2023-02-25T07:35:39.175Z,2.50
2023-02-25T07:40:41.296Z,2.80
2023-02-25T07:45:43.366Z,2.45
2023-02-25T07:50:45.445Z,2.60
2023-02-25T07:55:47.470Z,2.08
2023-02-25T08:00:49.512Z,2.60
2023-02-25T08:05:54.409Z,2.38
2023-02-25T08:10:56.404Z,2.08
2023-02-25T08:15:58.792Z,2.33
2023-02-25T08:21:02.889Z,2.22
2023-02-25T08:26:06.108Z,2.45
2023-02-25T08:31:11.541Z,2.50
2023-02-25T08:36:24.857Z,2.50
2023-02-25T08:41:28.762Z,1.80
2023-02-25T08:46:32.963Z,2.53
2023-02-25T08:51:35.340Z,2.13
2023-02-25T08:56:37.800Z,2.30
2023-02-25T09:01:46.017Z,2.33
2023-02-25T09:06:49.293Z,2.72
2023-02-25T09:11:52.078Z,2.58
2023-02-25T09:16:54.321Z,2.10
2023-02-25T09:21:56.608Z,1.85
2023-02-25T09:27:07.881Z,2.78
2023-02-25T09:32:20.282Z,2.42
2023-02-25T09:37:22.479Z,2.40
2023-02-25T09:42:27.653Z,2.45
2023-02-25T09:47:45.194Z,2.50
2023-02-25T09:52:51.021Z,3.28
2023-02-25T09:57:59.124Z,2.53
2023-02-25T10:03:22.055Z,2.05
2023-02-25T10:08:40.348Z,2.20
2023-02-25T10:14:15.924Z,2.47
2023-02-25T10:19:26.678Z,2.45
2023-02-25T10:24:45.375Z,1.88
2023-02-25T10:29:53.774Z,2.40
2023-02-25T10:35:02.064Z,2.38
2023-02-25T10:40:11.001Z,2.17
2023-02-25T10:45:18.407Z,1.58
2023-02-25T10:50:38.891Z,1.70
2023-02-25T10:55:51.793Z,1.58
2023-02-25T11:01:13.650Z,1.65
2023-02-25T11:06:23.478Z,1.40
2023-02-25T11:11:31.057Z,1.35
2023-02-25T11:16:37.948Z,1.08
2023-02-25T11:21:41.022Z,0.90
2023-02-25T11:26:46.889Z,0.70
2023-02-25T11:31:53.640Z,0.60
2023-02-25T11:36:59.881Z,0.47
2023-02-25T11:42:17.966Z,0.60
2023-02-25T11:47:29.687Z,0.80
2023-02-25T11:52:46.148Z,0.60
2023-02-25T11:58:03.465Z,0.88
2023-02-25T12:03:34.919Z,0.80
2023-02-25T12:09:12.120Z,0.98
2023-02-25T12:14:29.152Z,1.08
2023-02-25T12:20:01.114Z,0.90
2023-02-25T12:30:41.239Z,1.20
2023-02-25T12:35:49.452Z,1.10
2023-02-25T12:41:13.797Z,1.10
2023-02-25T12:46:26.882Z,0.82
2023-02-25T12:51:53.195Z,1.60
2023-02-25T12:57:21.643Z,1.20
2023-02-25T13:02:42.883Z,1.77
2023-02-25T13:07:44.899Z,1.20
2023-02-25T13:12:46.979Z,1.80
2023-02-25T13:18:11.447Z,1.50
2023-02-25T13:23:33.901Z,1.52
2023-02-25T13:28:55.540Z,1.70
2023-02-25T13:34:09.171Z,1.60
2023-02-25T13:39:32.422Z,1.88
2023-02-25T13:44:45.423Z,1.80
2023-02-25T13:50:05.803Z,1.38
2023-02-25T13:55:26.900Z,1.48
2023-02-25T14:00:52.053Z,1.20
2023-02-25T14:06:00.385Z,1.73
2023-02-25T14:11:41.909Z,1.55
2023-02-25T14:16:53.344Z,1.50
2023-02-25T14:22:16.709Z,1.50
2023-02-25T14:27:25.173Z,1.58
2023-02-25T14:32:44.941Z,1.80
2023-02-25T14:38:09.486Z,1.50
2023-02-25T14:43:36.337Z,1.60
2023-02-25T14:48:45.877Z,1.50
2023-02-25T14:54:06.519Z,1.40
2023-02-25T14:59:23.572Z,1.47
2023-02-25T15:04:46.588Z,1.35
2023-02-25T15:10:17.971Z,1.20
2023-02-25T15:15:38.792Z,1.52
2023-02-25T15:20:42.315Z,1.20
2023-02-25T15:26:04.877Z,1.75
2023-02-25T15:31:28.569Z,1.55
2023-02-25T15:36:44.823Z,1.42
2023-02-25T15:42:02.187Z,2.00
2023-02-25T15:47:22.582Z,1.88
2023-02-25T15:52:58.240Z,1.70
2023-02-25T15:58:00.671Z,1.48
2023-02-25T16:03:08.405Z,1.52
2023-02-25T16:08:27.814Z,1.45
2023-02-25T16:13:32.966Z,1.77
2023-02-25T16:18:45.076Z,1.80
2023-02-25T16:23:47.474Z,1.60
2023-02-25T16:29:07.590Z,2.08
2023-02-25T16:34:22.535Z,1.80
2023-02-25T16:39:27.663Z,2.00
2023-02-25T16:44:38.442Z,2.00
2023-02-25T16:49:46.111Z,2.22
2023-02-25T16:54:59.318Z,1.90
2023-02-25T17:00:15.624Z,2.28
2023-02-25T17:05:28.926Z,1.75
2023-02-25T17:10:34.612Z,2.05
2023-02-25T17:15:37.544Z,2.58
2023-02-25T17:20:39.809Z,1.98
2023-02-25T17:25:48.547Z,2.15
2023-02-25T17:30:51.970Z,2.65
2023-02-25T17:36:09.711Z,2.33
2023-02-25T17:41:19.065Z,2.70
2023-02-25T17:46:36.250Z,2.13
2023-02-25T17:51:38.879Z,2.20
2023-02-25T17:56:41.469Z,2.10
2023-02-25T18:01:48.689Z,2.33
2023-02-25T18:06:52.568Z,1.90
2023-02-25T18:11:57.748Z,2.58
2023-02-25T18:17:01.158Z,2.70
2023-02-25T18:22:04.694Z,2.50
2023-02-25T18:27:30.288Z,2.33
2023-02-25T18:32:32.358Z,2.90
2023-02-25T18:37:34.566Z,2.63
2023-02-25T18:42:36.779Z,2.67
2023-02-25T18:47:38.824Z,2.30
2023-02-25T18:52:41.454Z,2.10
2023-02-25T18:57:43.766Z,2.80
2023-02-25T19:02:49.066Z,2.53
2023-02-25T19:07:51.568Z,2.75
2023-02-25T19:13:06.561Z,3.35
2023-02-25T19:18:11.829Z,4.50
2023-02-25T19:23:16.121Z,6.82
2023-02-25T19:28:18.169Z,4.25
2023-02-25T19:33:20.250Z,2.85
2023-02-25T19:38:22.264Z,2.90
2023-02-25T19:43:24.351Z,2.35
2023-02-25T19:48:26.563Z,2.70
2023-02-25T19:53:28.866Z,2.47
2023-02-25T19:58:31.912Z,2.88
2023-02-25T20:03:35.695Z,3.80
2023-02-25T20:08:38.803Z,2.95
2023-02-25T20:13:41.506Z,2.88
2023-02-25T20:18:43.555Z,4.32
2023-02-25T20:23:46.456Z,3.50
2023-02-25T20:28:54.067Z,3.42
2023-02-25T20:33:58.905Z,3.70
2023-02-25T20:39:16.186Z,3.60
2023-02-25T20:44:18.280Z,3.53
2023-02-25T20:54:22.520Z,3.10
2023-02-25T20:59:24.606Z,3.08
2023-02-25T21:04:26.717Z,2.90
2023-02-25T21:09:28.809Z,4.55
2023-02-25T21:14:30.938Z,7.07
2023-02-25T21:19:32.982Z,4.38
2023-02-25T21:24:36.654Z,4.50
2023-02-25T21:29:39.042Z,3.85
2023-02-25T21:34:41.064Z,4.60
2023-02-25T21:39:43.191Z,5.60
2023-02-25T21:44:45.237Z,6.30
2023-02-25T21:49:47.313Z,6.13
2023-02-25T21:54:49.379Z,6.50
2023-02-25T21:59:53.681Z,7.82
2023-02-25T22:04:55.789Z,7.07
2023-02-25T22:09:57.965Z,6.30
2023-02-25T22:15:00.098Z,5.70
2023-02-25T22:20:04.135Z,5.50
2023-02-25T22:25:06.506Z,5.60
2023-02-25T22:30:17.970Z,5.70
2023-02-25T22:35:20.271Z,5.82
2023-02-25T22:40:22.330Z,5.38
2023-02-25T22:45:24.419Z,5.72
2023-02-25T22:50:28.962Z,5.53
2023-02-25T22:55:33.020Z,5.18
2023-02-25T23:00:41.267Z,5.85
2023-02-25T23:05:43.348Z,6.63
2023-02-25T23:10:45.567Z,5.97
2023-02-25T23:15:47.858Z,5.97
2023-02-25T23:20:53.565Z,4.97
2023-02-25T23:25:55.705Z,4.90
2023-02-25T23:30:58.154Z,4.85
2023-02-25T23:36:01.185Z,5.13
2023-02-25T23:41:03.380Z,4.28
2023-02-25T23:46:06.781Z,4.38
2023-02-25T23:51:09.181Z,4.80
2023-02-25T23:56:12.943Z,4.20
